createdAt,value
2022-11-23T00:00:36.488Z,92758.59
2022-11-23T00:03:04.150Z,92757.00
2022-11-23T00:05:31.828Z,92758.91
2022-11-23T00:08:00.758Z,92761.59
2022-11-23T00:10:28.421Z,92766.25
2022-11-23T00:12:56.016Z,92760.00
2022-11-23T00:15:23.591Z,92765.44
2022-11-23T00:17:51.140Z,92762.72
2022-11-23T00:20:18.954Z,92753.78
2022-11-23T00:22:46.510Z,92766.25
2022-11-23T00:25:15.586Z,92762.44
2022-11-23T00:27:43.211Z,92761.59
2022-11-23T00:30:11.997Z,92765.13
2022-11-23T00:32:39.569Z,92759.41
2022-11-23T00:35:07.566Z,92758.59
2022-11-23T00:37:35.176Z,92757.78
2022-11-23T00:40:02.801Z,92757.78
2022-11-23T00:42:37.664Z,92758.59
2022-11-23T00:45:06.324Z,92759.72
2022-11-23T00:47:33.939Z,92759.72
2022-11-23T00:50:01.487Z,92757.00
2022-11-23T00:52:29.120Z,92760.50
2022-11-23T00:54:56.820Z,92759.41
2022-11-23T00:57:24.395Z,92755.06
2022-11-23T00:59:53.351Z,92757.00
2022-11-23T01:02:21.077Z,92758.91
2022-11-23T01:04:48.711Z,92752.38
2022-11-23T01:07:16.533Z,92757.00
2022-11-23T01:09:44.191Z,92757.00
2022-11-23T01:12:11.741Z,92749.66
2022-11-23T01:14:39.568Z,92752.38
2022-11-23T01:17:08.492Z,92751.25
2022-11-23T01:19:36.031Z,92753.19
2022-11-23T01:22:03.620Z,92745.34
2022-11-23T01:24:31.336Z,92755.41
2022-11-23T01:26:58.932Z,92755.41
2022-11-23T01:29:26.485Z,92756.19
2022-11-23T01:31:54.084Z,92751.88
2022-11-23T01:34:23.002Z,92754.59
2022-11-23T01:36:50.592Z,92752.69
2022-11-23T01:39:18.153Z,92762.72
2022-11-23T01:41:46.039Z,92765.44
2022-11-23T01:44:30.156Z,92770.06
2022-11-23T01:46:58.795Z,92763.03
2022-11-23T01:49:28.155Z,92764.63
2022-11-23T01:51:56.934Z,92770.06
2022-11-23T01:54:26.326Z,92769.25
2022-11-23T01:56:54.819Z,92777.38
2022-11-23T01:59:22.416Z,92781.69
2022-11-23T02:01:49.975Z,92783.63
2022-11-23T02:04:19.233Z,92779.31
2022-11-23T02:06:48.219Z,92780.91
2022-11-23T02:09:16.035Z,92782.00
2022-11-23T02:11:43.629Z,92789.03
2022-11-23T02:14:11.259Z,92785.50
2022-11-23T02:16:38.941Z,92786.34
2022-11-23T02:19:07.775Z,92790.16
2022-11-23T02:21:35.463Z,92787.94
2022-11-23T02:24:06.104Z,92796.34
2022-11-23T02:26:35.771Z,92791.75
2022-11-23T02:29:04.806Z,92794.47
2022-11-23T02:31:32.442Z,92797.19
2022-11-23T02:34:00.105Z,92792.84
2022-11-23T02:36:39.299Z,92800.69
2022-11-23T02:39:11.621Z,92791.75
2022-11-23T02:41:42.437Z,92790.94
2022-11-23T02:44:14.853Z,92791.75
2022-11-23T02:46:42.537Z,92785.50
2022-11-23T02:49:10.119Z,92786.34
2022-11-23T02:51:37.730Z,92780.09
2022-11-23T02:54:05.534Z,92782.81
2022-11-23T02:56:33.139Z,92787.13
2022-11-23T02:59:02.149Z,92789.81
2022-11-23T03:01:29.890Z,92789.03
2022-11-23T03:03:57.628Z,92787.13
2022-11-23T03:06:25.232Z,92775.50
2022-11-23T03:08:52.785Z,92781.69
2022-11-23T03:11:20.396Z,92787.13
2022-11-23T03:13:47.948Z,92776.28
2022-11-23T03:16:17.408Z,92783.63
2022-11-23T03:18:45.036Z,92780.59
2022-11-23T03:21:12.620Z,92782.50
2022-11-23T03:23:40.238Z,92787.13
2022-11-23T03:26:12.655Z,92784.13
2022-11-23T03:28:40.794Z,92777.88
2022-11-23T03:31:08.364Z,92779.81
2022-11-23T03:33:37.380Z,92778.97
2022-11-23T03:36:05.105Z,92778.19
2022-11-23T03:38:32.664Z,92770.84
2022-11-23T03:41:00.233Z,92775.50
2022-11-23T03:43:27.821Z,92784.13
2022-11-23T03:45:55.363Z,92776.28
2022-11-23T03:48:23.279Z,92775.16
2022-11-23T03:50:52.234Z,92786.00
2022-11-23T03:53:19.818Z,92777.88
2022-11-23T03:55:47.650Z,92775.97
2022-11-23T03:58:15.855Z,92770.84
2022-11-23T04:00:43.628Z,92772.47
2022-11-23T04:03:11.212Z,92768.13
2022-11-23T04:05:38.790Z,92766.53
2022-11-23T04:08:07.902Z,92763.81
2022-11-23T04:10:35.763Z,92767.34
2022-11-23T04:13:03.635Z,92770.06
2022-11-23T04:15:31.430Z,92764.63
2022-11-23T04:17:59.020Z,92755.69
2022-11-23T04:20:27.652Z,92754.91
2022-11-23T04:22:55.322Z,92757.28
2022-11-23T04:25:24.283Z,92759.22
2022-11-23T04:27:51.835Z,92753.78
2022-11-23T04:30:19.644Z,92755.69
2022-11-23T04:32:47.188Z,92758.41
2022-11-23T04:35:14.977Z,92758.41
2022-11-23T04:37:42.537Z,92761.13
2022-11-23T04:40:11.031Z,92758.41
2022-11-23T04:42:39.964Z,92754.91
2022-11-23T04:45:08.343Z,92755.69
2022-11-23T04:47:35.940Z,92755.69
2022-11-23T04:50:03.651Z,92759.22
2022-11-23T04:52:31.204Z,92752.97
2022-11-23T04:54:58.795Z,92749.47
2022-11-23T04:57:26.360Z,92752.19
2022-11-23T04:59:55.381Z,92747.56
2022-11-23T05:02:22.973Z,92747.56
2022-11-23T05:04:50.528Z,92743.25
2022-11-23T05:07:18.231Z,92745.94
2022-11-23T05:09:45.829Z,92745.94
2022-11-23T05:12:13.383Z,92741.63
2022-11-23T05:14:42.860Z,92745.94
2022-11-23T05:17:12.137Z,92743.25
2022-11-23T05:19:39.928Z,92738.09
2022-11-23T05:22:07.691Z,92741.63
2022-11-23T05:24:35.259Z,92739.22
2022-11-23T05:27:02.826Z,92736.50
2022-11-23T05:29:48.895Z,92741.13
2022-11-23T05:32:17.822Z,92735.72
2022-11-23T05:34:45.414Z,92734.91
2022-11-23T05:37:12.954Z,92737.63
2022-11-23T05:39:40.496Z,92734.91
2022-11-23T05:42:08.222Z,92733.78
2022-11-23T05:44:35.849Z,92738.44
2022-11-23T05:47:03.450Z,92737.31
2022-11-23T05:49:32.616Z,92739.22
2022-11-23T05:52:00.350Z,92738.09
2022-11-23T05:54:27.920Z,92739.75
2022-11-23T05:56:55.524Z,92738.94
2022-11-23T05:59:23.196Z,92737.81
2022-11-23T06:01:50.790Z,92733.50
2022-11-23T06:04:18.412Z,92744.34
2022-11-23T06:06:47.424Z,92740.03
2022-11-23T06:09:15.001Z,92743.84
2022-11-23T06:11:44.428Z,92738.44
2022-11-23T06:14:14.454Z,92742.25
2022-11-23T06:16:42.249Z,92743.03
2022-11-23T06:19:09.852Z,92733.31
2022-11-23T06:21:37.440Z,92730.59
2022-11-23T06:24:07.230Z,92729.81
2022-11-23T06:26:34.841Z,92735.22
2022-11-23T06:29:02.501Z,92731.69
2022-11-23T06:31:30.099Z,92734.72
2022-11-23T06:33:57.685Z,92732.81
2022-11-23T06:36:25.257Z,92736.34
2022-11-23T06:38:52.855Z,92742.53
2022-11-23T06:41:21.723Z,92740.16
2022-11-23T06:43:49.284Z,92738.22
2022-11-23T06:46:16.843Z,92746.34
2022-11-23T06:48:44.553Z,92743.66
2022-11-23T06:51:12.229Z,92755.31
2022-11-23T06:53:39.786Z,92750.66
2022-11-23T06:56:07.998Z,92749.06
2022-11-23T06:58:36.911Z,92759.63
2022-11-23T07:01:05.435Z,92764.22
2022-11-23T07:03:33.140Z,92760.72
2022-11-23T07:06:00.723Z,92763.13
2022-11-23T07:08:28.336Z,92762.84
2022-11-23T07:11:01.112Z,92770.97
2022-11-23T07:13:28.695Z,92767.44
2022-11-23T07:15:58.303Z,92779.88
2022-11-23T07:18:26.088Z,92779.09
2022-11-23T07:20:53.795Z,92775.28
2022-11-23T07:23:21.373Z,92782.59
2022-11-23T07:25:48.928Z,92781.50
2022-11-23T07:28:16.500Z,92779.59
2022-11-23T07:30:44.343Z,92789.34
2022-11-23T07:33:13.535Z,92786.91
2022-11-23T07:35:41.446Z,92799.38
2022-11-23T07:38:09.151Z,92793.97
2022-11-23T07:40:37.136Z,92803.38
2022-11-23T07:43:05.115Z,92795.56
2022-11-23T07:45:32.695Z,92804.50
2022-11-23T07:48:00.861Z,92798.28
2022-11-23T07:50:29.829Z,92803.72
2022-11-23T07:52:57.519Z,92807.22
2022-11-23T07:55:25.134Z,92809.13
2022-11-23T07:57:53.297Z,92812.63
2022-11-23T08:00:21.507Z,92810.72
2022-11-23T08:03:19.366Z,92810.72
2022-11-23T08:05:38.048Z,92815.03
2022-11-23T08:08:06.084Z,92810.41
2022-11-23T08:10:34.408Z,92805.00
2022-11-23T08:13:04.999Z,92805.81
2022-11-23T08:15:32.647Z,92803.88
2022-11-23T08:18:00.902Z,92805.50
2022-11-23T08:20:29.318Z,92809.84
2022-11-23T08:22:58.376Z,92807.13
2022-11-23T08:25:26.124Z,92814.94
2022-11-23T08:27:56.459Z,92809.13
2022-11-23T08:30:24.155Z,92814.69
2022-11-23T08:32:51.720Z,92813.94
2022-11-23T08:35:19.408Z,92818.22
2022-11-23T08:37:47.072Z,92822.84
2022-11-23T08:40:20.657Z,92818.13
2022-11-23T08:42:51.354Z,92822.66
2022-11-23T08:45:18.944Z,92815.84
2022-11-23T08:47:46.520Z,92815.53
2022-11-23T08:50:14.214Z,92814.13
2022-11-23T08:52:41.810Z,92820.88
2022-11-23T08:55:09.785Z,92817.84
2022-11-23T08:57:38.724Z,92815.66
2022-11-23T09:00:07.328Z,92819.66
2022-11-23T09:02:34.921Z,92812.53
2022-11-23T09:05:02.526Z,92815.44
2022-11-23T09:07:30.212Z,92814.53
2022-11-23T09:09:57.793Z,92813.63
2022-11-23T09:12:25.360Z,92816.22
2022-11-23T09:15:13.255Z,92816.16
2022-11-23T09:17:40.904Z,92811.75
2022-11-23T09:20:10.160Z,92810.84
2022-11-23T09:22:37.764Z,92811.81
2022-11-23T09:25:06.631Z,92813.94
2022-11-23T09:27:34.347Z,92812.22
2022-11-23T09:30:01.903Z,92817.03
2022-11-23T09:32:30.852Z,92820.44
2022-11-23T09:34:58.392Z,92815.22
2022-11-23T09:37:26.029Z,92814.59
2022-11-23T09:39:53.566Z,92811.28
2022-11-23T09:42:37.950Z,92811.16
2022-11-23T09:45:12.767Z,92803.53
2022-11-23T09:47:51.492Z,92808.34
2022-11-23T09:50:22.831Z,92807.72
2022-11-23T09:52:50.403Z,92801.69
2022-11-23T09:55:20.398Z,92797.56
2022-11-23T09:57:48.150Z,92802.69
2022-11-23T10:00:18.570Z,92794.84
2022-11-23T10:02:47.503Z,92798.84
2022-11-23T10:05:17.867Z,92797.41
2022-11-23T10:07:50.912Z,92791.41
2022-11-23T10:10:26.651Z,92789.97
2022-11-23T10:12:57.567Z,92790.97
2022-11-23T10:15:27.222Z,92796.56
2022-11-23T10:18:04.494Z,92787.31
2022-11-23T10:20:49.660Z,92784.00
2022-11-23T10:23:19.407Z,92785.59
2022-11-23T10:25:48.497Z,92783.38
2022-11-23T10:28:17.094Z,92791.22
2022-11-23T10:30:44.841Z,92784.69
2022-11-23T10:33:20.442Z,92776.69
2022-11-23T10:35:47.993Z,92764.72
2022-11-23T10:38:18.999Z,92774.16
2022-11-23T10:40:50.431Z,92771.44
2022-11-23T10:43:19.540Z,92763.00
2022-11-23T10:45:48.373Z,92759.16
2022-11-23T10:48:28.346Z,92759.69
2022-11-23T10:50:56.110Z,92760.50
2022-11-23T10:53:26.261Z,92760.19
2022-11-23T10:55:55.034Z,92753.63
2022-11-23T10:58:26.740Z,92763.38
2022-11-23T11:01:00.014Z,92758.75
2022-11-23T11:03:31.406Z,92764.19
2022-11-23T11:06:14.406Z,92757.94
2022-11-23T11:08:50.704Z,92751.72
2022-11-23T11:11:23.384Z,92740.53
2022-11-23T11:13:51.036Z,92745.19
2022-11-23T11:16:20.592Z,92752.22
2022-11-23T11:18:49.523Z,92742.47
2022-11-23T11:21:20.908Z,92744.34
2022-11-23T11:23:53.116Z,92742.13
2022-11-23T11:26:21.629Z,92744.06
2022-11-23T11:28:50.295Z,92735.09
2022-11-23T11:31:44.373Z,92735.91
2022-11-23T11:34:36.665Z,92737.50
2022-11-23T11:37:08.864Z,92735.59
2022-11-23T11:39:39.917Z,92732.06
2022-11-23T11:42:08.676Z,92732.06
2022-11-23T11:44:37.923Z,92732.88
2022-11-23T11:47:17.275Z,92728.25
2022-11-23T11:49:47.091Z,92723.63
2022-11-23T11:52:19.045Z,92732.06
2022-11-23T11:54:51.754Z,92736.69
2022-11-23T11:57:21.788Z,92740.53
2022-11-23T11:59:50.415Z,92740.53
2022-11-23T12:02:21.457Z,92730.47
2022-11-23T12:04:55.719Z,92728.06
2022-11-23T12:07:25.750Z,92725.03
2022-11-23T12:09:54.029Z,92719.59
2022-11-23T12:12:26.640Z,92717.69
2022-11-23T12:14:57.220Z,92718.00
2022-11-23T12:17:57.260Z,92717.19
2022-11-23T12:20:29.422Z,92725.66
2022-11-23T12:23:04.444Z,92724.06
2022-11-23T12:25:36.177Z,92719.06
2022-11-23T12:28:31.201Z,92718.03
2022-11-23T12:31:02.383Z,92708.00
2022-11-23T12:33:41.470Z,92714.22
2022-11-23T12:36:26.968Z,92708.47
2022-11-23T12:38:55.995Z,92706.25
2022-11-23T12:41:24.740Z,92700.81
2022-11-23T12:43:59.709Z,92702.41
2022-11-23T12:46:30.026Z,92709.44
2022-11-23T12:49:04.199Z,92706.75
2022-11-23T12:51:37.263Z,92717.34
2022-11-23T12:54:36.308Z,92709.19
2022-11-23T12:57:08.995Z,92708.06
2022-11-23T12:59:42.874Z,92705.34
2022-11-23T13:02:14.822Z,92708.06
2022-11-23T13:04:53.823Z,92709.97
2022-11-23T13:07:49.407Z,92704.53
2022-11-23T13:10:25.006Z,92708.38
2022-11-23T13:13:03.928Z,92707.25
2022-11-23T13:15:44.207Z,92710.78
2022-11-23T13:18:15.012Z,92705.34
2022-11-23T13:20:50.384Z,92705.06
2022-11-23T13:23:23.457Z,92706.16
2022-11-23T13:26:18.451Z,92699.09
2022-11-23T13:28:46.547Z,92692.59
2022-11-23T13:31:23.510Z,92693.28
2022-11-23T13:33:51.744Z,92694.22
2022-11-23T13:37:11.194Z,92688.03
2022-11-23T13:40:03.673Z,92687.69
2022-11-23T13:42:32.855Z,92698.25
2022-11-23T13:45:30.963Z,92689.09
2022-11-23T13:48:06.565Z,92693.47
2022-11-23T13:50:34.104Z,92688.91
2022-11-23T13:53:01.784Z,92696.47
2022-11-23T13:55:34.561Z,92697.31
2022-11-23T13:58:40.561Z,92691.31
2022-11-23T14:01:08.691Z,92691.06
2022-11-23T14:03:48.516Z,92685.94
2022-11-23T14:06:20.688Z,92699.91
2022-11-23T14:08:48.566Z,92692.22
2022-11-23T14:11:20.744Z,92690.00
2022-11-23T14:13:52.845Z,92694.81
2022-11-23T14:16:30.138Z,92691.47
2022-11-23T14:19:02.776Z,92697.25
2022-11-23T14:21:33.916Z,92697.72
2022-11-23T14:24:47.503Z,92688.31
2022-11-23T14:27:46.856Z,92689.75
2022-11-23T14:30:22.971Z,92691.34
2022-11-23T14:33:03.503Z,92696.00
2022-11-23T14:35:33.442Z,92693.59
2022-11-23T14:38:33.593Z,92698.06
2022-11-23T14:41:04.327Z,92697.91
2022-11-23T14:43:33.311Z,92697.41
2022-11-23T14:46:02.247Z,92699.97
2022-11-23T14:48:30.585Z,92701.72
2022-11-23T14:50:58.747Z,92704.56
2022-11-23T14:53:28.621Z,92705.66
2022-11-23T14:55:56.535Z,92698.97
2022-11-23T14:58:25.407Z,92694.94
2022-11-23T15:00:54.355Z,92692.88
2022-11-23T15:03:49.243Z,92684.22
2022-11-23T15:06:13.480Z,92682.13
2022-11-23T15:08:44.552Z,92685.16
2022-11-23T15:11:12.924Z,92679.25
2022-11-23T15:13:44.176Z,92683.09
2022-11-23T15:16:14.214Z,92679.84
2022-11-23T15:18:42.444Z,92679.84
2022-11-23T15:21:21.341Z,92682.91
2022-11-23T15:23:57.076Z,92682.41
2022-11-23T15:26:46.913Z,92678.41
2022-11-23T15:29:28.938Z,92683.03
2022-11-23T15:32:22.317Z,92674.09
2022-11-23T15:34:46.217Z,92674.38
2022-11-23T15:37:13.842Z,92673.91
2022-11-23T15:39:41.407Z,92672.31
2022-11-23T15:42:09.939Z,92669.88
2022-11-23T15:44:37.502Z,92672.94
2022-11-23T15:47:07.339Z,92682.19
2022-11-23T15:49:37.775Z,92681.38
2022-11-23T15:52:05.620Z,92679.78
2022-11-23T15:54:35.978Z,92678.19
2022-11-23T15:57:03.867Z,92682.03
2022-11-23T15:59:32.789Z,92675.25
2022-11-23T16:02:00.664Z,92681.50
2022-11-23T16:04:31.190Z,92679.91
2022-11-23T16:06:59.027Z,92677.97
2022-11-23T16:09:51.093Z,92682.63
2022-11-23T16:12:25.509Z,92684.53
2022-11-23T16:14:53.399Z,92677.50
2022-11-23T16:17:21.847Z,92681.03
2022-11-23T16:19:51.275Z,92680.50
2022-11-23T16:22:22.373Z,92680.84
2022-11-23T16:24:51.251Z,92684.66
2022-11-23T16:27:23.660Z,92681.94
2022-11-23T16:29:51.516Z,92683.06
2022-11-23T16:32:23.960Z,92680.34
2022-11-23T16:34:53.180Z,92679.53
2022-11-23T16:37:20.904Z,92678.75
2022-11-23T16:39:48.489Z,92679.88
2022-11-23T16:42:16.289Z,92679.06
2022-11-23T16:44:44.181Z,92680.16
2022-11-23T16:47:21.769Z,92684.78
2022-11-23T16:49:49.635Z,92678.88
2022-11-23T16:52:18.696Z,92669.13
2022-11-23T16:54:46.288Z,92666.72
2022-11-23T16:57:31.977Z,92681.41
2022-11-23T16:59:59.876Z,92670.53
2022-11-23T17:02:27.468Z,92682.50
2022-11-23T17:04:55.708Z,92682.50
2022-11-23T17:07:24.746Z,92679.31
2022-11-23T17:09:52.377Z,92672.28
2022-11-23T17:12:20.818Z,92671.50
2022-11-23T17:14:48.921Z,92673.38
2022-11-23T17:17:18.268Z,92678.81
2022-11-23T17:19:48.163Z,92680.91
2022-11-23T17:22:16.309Z,92680.13
2022-11-23T17:24:45.296Z,92680.41
2022-11-23T17:27:13.655Z,92683.13
2022-11-23T17:29:42.391Z,92684.25
2022-11-23T17:32:11.328Z,92683.75
2022-11-23T17:34:38.908Z,92688.38
2022-11-23T17:37:06.655Z,92693.31
2022-11-23T17:39:34.632Z,92697.16
2022-11-23T17:42:05.212Z,92697.97
2022-11-23T17:44:32.925Z,92699.88
2022-11-23T17:47:00.715Z,92700.97
2022-11-23T17:49:28.537Z,92710.72
2022-11-23T17:51:56.310Z,92702.91
2022-11-23T17:54:23.916Z,92712.66
2022-11-23T17:56:51.776Z,92724.31
2022-11-23T17:59:20.748Z,92724.63
2022-11-23T18:01:48.387Z,92723.81
2022-11-23T18:04:16.144Z,92717.28
2022-11-23T18:06:43.724Z,92730.84
2022-11-23T18:09:11.938Z,92735.50
2022-11-23T18:11:39.514Z,92747.13
2022-11-23T18:14:07.196Z,92744.44
2022-11-23T18:16:36.178Z,92751.16
2022-11-23T18:19:04.532Z,92758.69
2022-11-23T18:21:32.159Z,92774.53
2022-11-23T18:24:04.287Z,92779.53
2022-11-23T18:26:32.376Z,92775.28
2022-11-23T18:28:59.938Z,92800.13
2022-11-23T18:31:27.801Z,92808.63
2022-11-23T18:33:56.829Z,92823.09
2022-11-23T18:36:24.473Z,92839.25
2022-11-23T18:38:52.060Z,92835.31
2022-11-23T18:41:19.705Z,92825.41
2022-11-23T18:43:47.284Z,92838.88
2022-11-23T18:46:18.985Z,92840.38
2022-11-23T18:48:47.056Z,92847.25
2022-11-23T18:51:16.064Z,92852.25
2022-11-23T18:53:44.802Z,92853.25
2022-11-23T18:56:12.586Z,92858.84
2022-11-23T18:58:41.082Z,92869.91
2022-11-23T19:01:12.212Z,92887.19
2022-11-23T19:03:41.178Z,92891.22
2022-11-23T19:06:09.149Z,92898.75
2022-11-23T19:08:41.178Z,92900.88
2022-11-23T19:11:09.315Z,92914.97
2022-11-23T19:13:37.841Z,92917.56
2022-11-23T19:16:10.527Z,92923.81
2022-11-23T19:18:38.214Z,92932.78
2022-11-23T19:21:13.040Z,92929.75
2022-11-23T19:23:42.252Z,92937.91
2022-11-23T19:26:09.816Z,92946.38
2022-11-23T19:28:37.422Z,92949.59
2022-11-23T19:31:12.074Z,92944.63
2022-11-23T19:33:39.761Z,92949.28
2022-11-23T19:36:08.002Z,92956.19
2022-11-23T19:38:35.713Z,92953.84
2022-11-23T19:41:04.669Z,92956.06
2022-11-23T19:43:32.614Z,92960.50
2022-11-23T19:46:01.086Z,92966.59
2022-11-23T19:48:30.229Z,92973.16
2022-11-23T19:50:58.226Z,92973.63
2022-11-23T19:53:30.644Z,92980.88
2022-11-23T19:56:02.060Z,92988.09
2022-11-23T19:58:32.290Z,92991.31
2022-11-23T20:01:00.812Z,92990.19
2022-11-23T20:03:28.447Z,92989.88
2022-11-23T20:05:57.291Z,92998.53
2022-11-23T20:08:24.973Z,92999.16
2022-11-23T20:10:52.622Z,93000.28
2022-11-23T20:13:20.201Z,93011.47
2022-11-23T20:15:49.438Z,93010.78
2022-11-23T20:18:17.464Z,93019.59
2022-11-23T20:20:45.827Z,93014.78
2022-11-23T20:23:14.685Z,93026.25
2022-11-23T20:25:42.439Z,93020.66
2022-11-23T20:28:12.302Z,93022.66
2022-11-23T20:30:39.924Z,93027.09
2022-11-23T20:33:08.897Z,93024.03
2022-11-23T20:35:36.608Z,93021.44
2022-11-23T20:38:04.892Z,93017.69
2022-11-23T20:40:32.573Z,93032.22
2022-11-23T20:43:00.159Z,93038.28
2022-11-23T20:45:27.968Z,93039.19
2022-11-23T20:47:55.709Z,93034.66
2022-11-23T20:50:26.765Z,93043.78
2022-11-23T20:52:54.542Z,93042.47
2022-11-23T20:55:23.503Z,93046.59
2022-11-23T20:57:51.572Z,93053.75
2022-11-23T21:00:20.487Z,93047.31
2022-11-23T21:02:49.853Z,93069.38
2022-11-23T21:05:17.687Z,93063.72
2022-11-23T21:07:46.788Z,93059.72
2022-11-23T21:10:35.248Z,93066.28
2022-11-23T21:13:20.453Z,93059.19
2022-11-23T21:15:48.058Z,93073.09
2022-11-23T21:18:15.880Z,93075.81
2022-11-23T21:20:43.547Z,93076.44
2022-11-23T21:23:12.471Z,93083.28
2022-11-23T21:25:39.999Z,93080.84
2022-11-23T21:28:07.592Z,93089.31
2022-11-23T21:30:36.688Z,93094.25
2022-11-23T21:33:04.449Z,93100.78
2022-11-23T21:35:32.083Z,93103.81
2022-11-23T21:37:59.962Z,93111.47
2022-11-23T21:40:29.297Z,93113.38
2022-11-23T21:42:57.114Z,93100.09
2022-11-23T21:45:24.804Z,93107.72
2022-11-23T21:47:52.423Z,93122.38
2022-11-23T21:50:20.015Z,93123.00
2022-11-23T21:52:47.628Z,93130.66
2022-11-23T21:55:15.305Z,93135.25
2022-11-23T21:57:44.235Z,93139.41
2022-11-23T22:00:12.653Z,93138.28
2022-11-23T22:02:40.189Z,93140.50
2022-11-23T22:05:08.226Z,93147.06
2022-11-23T22:07:35.920Z,93157.91
2022-11-23T22:10:03.615Z,93158.22
2022-11-23T22:12:31.196Z,93153.88
2022-11-23T22:15:00.429Z,93157.69
2022-11-23T22:17:28.503Z,93165.34
2022-11-23T22:19:56.061Z,93174.28
2022-11-23T22:22:23.646Z,93173.78
2022-11-23T22:24:51.199Z,93174.91
2022-11-23T22:27:19.529Z,93180.31
2022-11-23T22:29:47.075Z,93175.50
2022-11-23T22:32:15.983Z,93184.75
2022-11-23T22:34:43.720Z,93184.75
2022-11-23T22:37:11.285Z,93190.47
2022-11-23T22:39:38.918Z,93202.44
2022-11-23T22:42:06.519Z,93210.88
2022-11-23T22:44:34.569Z,93206.25
2022-11-23T22:47:02.388Z,93210.88
2022-11-23T22:49:31.323Z,93210.09
2022-11-23T22:51:58.992Z,93217.41
2022-11-23T22:54:28.407Z,93218.50
2022-11-23T22:56:55.991Z,93229.69
2022-11-23T22:59:23.573Z,93238.91
2022-11-23T23:01:51.508Z,93233.81
2022-11-23T23:04:19.060Z,93239.22
2022-11-23T23:06:49.759Z,93238.41
2022-11-23T23:09:17.344Z,93240.03
2022-11-23T23:11:44.928Z,93251.19
2022-11-23T23:14:12.513Z,93245.75
2022-11-23T23:16:40.214Z,93246.06
2022-11-23T23:19:08.056Z,93250.69
2022-11-23T23:21:35.593Z,93259.63
2022-11-23T23:24:05.653Z,93249.88
2022-11-23T23:26:34.581Z,93265.38
2022-11-23T23:29:02.134Z,93268.09
2022-11-23T23:31:30.315Z,93272.97
2022-11-23T23:33:57.963Z,93275.19
2022-11-23T23:36:25.614Z,93283.34
2022-11-23T23:38:53.242Z,93287.97
2022-11-23T23:41:22.174Z,93291.78
2022-11-23T23:43:49.782Z,93292.59
2022-11-23T23:46:17.605Z,93299.13
2022-11-23T23:48:45.420Z,93294.78
2022-11-23T23:51:13.699Z,93297.50
2022-11-23T23:53:41.400Z,93305.66
2022-11-23T23:56:09.858Z,93307.84
2022-11-23T23:58:38.764Z,93310.56
